sensor_id;sensor_type;location;lat;lon;timestamp;P1;durP1;ratioP1;P2;durP2;ratioP2
42364;SDS011;28498;54.400;18.566;2023-11-21T00:01:16;9.00;;;4.40;;
42364;SDS011;28498;54.400;18.566;2023-11-21T00:03:43;9.75;;;4.75;;
42364;SDS011;28498;54.400;18.566;2023-11-21T00:06:11;10.10;;;4.82;;
42364;SDS011;28498;54.400;18.566;2023-11-21T00:08:38;10.07;;;4.80;;
42364;SDS011;28498;54.400;18.566;2023-11-21T00:11:05;9.60;;;4.55;;
42364;SDS011;28498;54.400;18.566;2023-11-21T00:13:32;10.55;;;4.65;;
42364;SDS011;28498;54.400;18.566;2023-11-21T00:16:00;10.95;;;5.10;;
42364;SDS011;28498;54.400;18.566;2023-11-21T00:18:27;10.02;;;4.57;;
42364;SDS011;28498;54.400;18.566;2023-11-21T00:20:54;12.55;;;4.45;;
42364;SDS011;28498;54.400;18.566;2023-11-21T00:23:21;8.27;;;4.30;;
42364;SDS011;28498;54.400;18.566;2023-11-21T00:25:48;11.05;;;4.43;;
42364;SDS011;28498;54.400;18.566;2023-11-21T00:28:15;8.68;;;4.95;;
42364;SDS011;28498;54.400;18.566;2023-11-21T00:30:42;10.23;;;4.00;;
42364;SDS011;28498;54.400;18.566;2023-11-21T00:33:09;9.52;;;5.00;;
42364;SDS011;28498;54.400;18.566;2023-11-21T00:35:36;8.82;;;4.47;;
42364;SDS011;28498;54.400;18.566;2023-11-21T00:38:03;9.95;;;4.75;;
42364;SDS011;28498;54.400;18.566;2023-11-21T00:40:30;8.88;;;4.68;;
42364;SDS011;28498;54.400;18.566;2023-11-21T00:42:57;8.95;;;4.35;;
42364;SDS011;28498;54.400;18.566;2023-11-21T00:45:25;10.10;;;4.47;;
42364;SDS011;28498;54.400;18.566;2023-11-21T00:47:52;7.68;;;4.32;;
42364;SDS011;28498;54.400;18.566;2023-11-21T00:50:19;9.43;;;4.75;;
42364;SDS011;28498;54.400;18.566;2023-11-21T00:52:46;8.93;;;5.00;;
42364;SDS011;28498;54.400;18.566;2023-11-21T00:55:13;9.00;;;4.72;;
42364;SDS011;28498;54.400;18.566;2023-11-21T00:57:40;10.90;;;4.72;;
42364;SDS011;28498;54.400;18.566;2023-11-21T01:00:08;11.82;;;5.25;;
42364;SDS011;28498;54.400;18.566;2023-11-21T01:02:43;8.68;;;4.45;;
42364;SDS011;28498;54.400;18.566;2023-11-21T01:05:11;10.43;;;4.75;;
42364;SDS011;28498;54.400;18.566;2023-11-21T01:07:38;9.20;;;5.05;;
42364;SDS011;28498;54.400;18.566;2023-11-21T01:10:06;10.32;;;4.85;;
42364;SDS011;28498;54.400;18.566;2023-11-21T01:12:35;8.82;;;4.78;;
42364;SDS011;28498;54.400;18.566;2023-11-21T01:15:04;9.57;;;4.78;;
42364;SDS011;28498;54.400;18.566;2023-11-21T01:17:35;11.90;;;4.60;;
42364;SDS011;28498;54.400;18.566;2023-11-21T01:20:03;9.65;;;5.05;;
42364;SDS011;28498;54.400;18.566;2023-11-21T01:22:37;8.88;;;4.10;;
42364;SDS011;28498;54.400;18.566;2023-11-21T01:25:05;8.38;;;4.97;;
42364;SDS011;28498;54.400;18.566;2023-11-21T01:27:34;10.20;;;4.65;;
42364;SDS011;28498;54.400;18.566;2023-11-21T01:30:01;12.50;;;4.93;;
42364;SDS011;28498;54.400;18.566;2023-11-21T01:32:29;10.20;;;4.65;;
42364;SDS011;28498;54.400;18.566;2023-11-21T01:34:57;8.75;;;4.22;;
42364;SDS011;28498;54.400;18.566;2023-11-21T01:37:24;11.55;;;4.57;;
42364;SDS011;28498;54.400;18.566;2023-11-21T01:39:54;9.27;;;4.40;;
42364;SDS011;28498;54.400;18.566;2023-11-21T01:42:22;6.45;;;3.72;;
42364;SDS011;28498;54.400;18.566;2023-11-21T01:44:49;10.07;;;4.50;;
42364;SDS011;28498;54.400;18.566;2023-11-21T01:47:16;9.45;;;4.60;;
42364;SDS011;28498;54.400;18.566;2023-11-21T01:49:43;8.80;;;4.40;;
42364;SDS011;28498;54.400;18.566;2023-11-21T01:52:11;11.05;;;4.30;;
42364;SDS011;28498;54.400;18.566;2023-11-21T01:54:39;6.93;;;3.78;;
42364;SDS011;28498;54.400;18.566;2023-11-21T01:57:09;15.50;;;5.25;;
42364;SDS011;28498;54.400;18.566;2023-11-21T01:59:36;8.10;;;4.40;;
42364;SDS011;28498;54.400;18.566;2023-11-21T02:02:05;8.98;;;4.35;;
42364;SDS011;28498;54.400;18.566;2023-11-21T02:04:33;7.97;;;4.18;;
42364;SDS011;28498;54.400;18.566;2023-11-21T02:07:00;11.52;;;4.03;;
42364;SDS011;28498;54.400;18.566;2023-11-21T02:09:27;10.55;;;5.47;;
42364;SDS011;28498;54.400;18.566;2023-11-21T02:12:04;11.23;;;4.10;;
42364;SDS011;28498;54.400;18.566;2023-11-21T02:14:31;7.32;;;3.83;;
42364;SDS011;28498;54.400;18.566;2023-11-21T02:16:58;8.57;;;3.75;;
42364;SDS011;28498;54.400;18.566;2023-11-21T02:19:27;8.27;;;4.03;;
42364;SDS011;28498;54.400;18.566;2023-11-21T02:21:56;7.53;;;3.63;;
42364;SDS011;28498;54.400;18.566;2023-11-21T02:24:27;9.35;;;4.18;;
42364;SDS011;28498;54.400;18.566;2023-11-21T02:26:54;8.07;;;4.07;;
42364;SDS011;28498;54.400;18.566;2023-11-21T02:29:21;9.48;;;4.07;;
42364;SDS011;28498;54.400;18.566;2023-11-21T02:31:50;8.43;;;3.70;;
42364;SDS011;28498;54.400;18.566;2023-11-21T02:34:18;8.40;;;4.32;;
42364;SDS011;28498;54.400;18.566;2023-11-21T02:36:45;9.02;;;4.05;;
42364;SDS011;28498;54.400;18.566;2023-11-21T02:39:12;8.63;;;3.97;;
42364;SDS011;28498;54.400;18.566;2023-11-21T02:41:40;7.55;;;3.60;;
42364;SDS011;28498;54.400;18.566;2023-11-21T02:44:07;7.85;;;3.95;;
42364;SDS011;28498;54.400;18.566;2023-11-21T02:46:34;7.78;;;3.90;;
42364;SDS011;28498;54.400;18.566;2023-11-21T02:49:02;6.88;;;3.85;;
42364;SDS011;28498;54.400;18.566;2023-11-21T02:51:30;7.35;;;3.72;;
42364;SDS011;28498;54.400;18.566;2023-11-21T02:53:57;6.65;;;3.17;;
42364;SDS011;28498;54.400;18.566;2023-11-21T02:56:25;8.77;;;3.90;;
42364;SDS011;28498;54.400;18.566;2023-11-21T02:58:59;9.98;;;4.15;;
42364;SDS011;28498;54.400;18.566;2023-11-21T03:01:26;8.07;;;3.83;;
42364;SDS011;28498;54.400;18.566;2023-11-21T03:03:54;5.80;;;3.22;;
42364;SDS011;28498;54.400;18.566;2023-11-21T03:06:22;7.88;;;3.80;;
42364;SDS011;28498;54.400;18.566;2023-11-21T03:08:50;6.60;;;3.63;;
42364;SDS011;28498;54.400;18.566;2023-11-21T03:11:17;8.57;;;3.80;;
42364;SDS011;28498;54.400;18.566;2023-11-21T03:13:44;10.30;;;3.53;;
42364;SDS011;28498;54.400;18.566;2023-11-21T03:16:12;8.73;;;4.55;;
42364;SDS011;28498;54.400;18.566;2023-11-21T03:18:39;8.27;;;3.42;;
42364;SDS011;28498;54.400;18.566;2023-11-21T03:21:07;6.55;;;3.65;;
42364;SDS011;28498;54.400;18.566;2023-11-21T03:23:37;6.50;;;3.42;;
42364;SDS011;28498;54.400;18.566;2023-11-21T03:26:04;7.22;;;3.50;;
42364;SDS011;28498;54.400;18.566;2023-11-21T03:28:32;7.47;;;3.28;;
42364;SDS011;28498;54.400;18.566;2023-11-21T03:30:59;8.35;;;4.25;;
42364;SDS011;28498;54.400;18.566;2023-11-21T03:33:26;7.07;;;3.50;;
42364;SDS011;28498;54.400;18.566;2023-11-21T03:35:53;7.18;;;3.30;;
42364;SDS011;28498;54.400;18.566;2023-11-21T03:38:20;7.18;;;3.78;;
42364;SDS011;28498;54.400;18.566;2023-11-21T03:40:47;7.80;;;4.03;;
42364;SDS011;28498;54.400;18.566;2023-11-21T03:43:14;7.85;;;3.92;;
42364;SDS011;28498;54.400;18.566;2023-11-21T03:45:41;8.02;;;3.42;;
42364;SDS011;28498;54.400;18.566;2023-11-21T03:48:08;9.05;;;4.50;;
42364;SDS011;28498;54.400;18.566;2023-11-21T03:50:35;6.88;;;4.13;;
42364;SDS011;28498;54.400;18.566;2023-11-21T03:53:02;8.23;;;3.83;;
42364;SDS011;28498;54.400;18.566;2023-11-21T03:55:30;7.40;;;3.75;;
42364;SDS011;28498;54.400;18.566;2023-11-21T03:57:58;9.82;;;3.58;;
42364;SDS011;28498;54.400;18.566;2023-11-21T04:00:25;8.38;;;4.03;;
42364;SDS011;28498;54.400;18.566;2023-11-21T04:02:53;7.45;;;3.65;;
42364;SDS011;28498;54.400;18.566;2023-11-21T04:05:20;8.50;;;5.05;;
42364;SDS011;28498;54.400;18.566;2023-11-21T04:07:49;7.28;;;3.45;;
42364;SDS011;28498;54.400;18.566;2023-11-21T04:10:17;8.10;;;3.42;;
42364;SDS011;28498;54.400;18.566;2023-11-21T04:12:45;8.48;;;3.67;;
42364;SDS011;28498;54.400;18.566;2023-11-21T04:15:12;6.97;;;3.55;;
42364;SDS011;28498;54.400;18.566;2023-11-21T04:17:40;9.80;;;3.88;;
42364;SDS011;28498;54.400;18.566;2023-11-21T04:20:08;9.93;;;3.65;;
42364;SDS011;28498;54.400;18.566;2023-11-21T04:22:37;5.80;;;3.33;;
42364;SDS011;28498;54.400;18.566;2023-11-21T04:25:11;8.13;;;4.07;;
42364;SDS011;28498;54.400;18.566;2023-11-21T04:27:42;7.80;;;3.95;;
42364;SDS011;28498;54.400;18.566;2023-11-21T04:30:10;9.52;;;4.07;;
42364;SDS011;28498;54.400;18.566;2023-11-21T04:32:38;9.40;;;3.85;;
42364;SDS011;28498;54.400;18.566;2023-11-21T04:35:05;8.88;;;3.97;;
42364;SDS011;28498;54.400;18.566;2023-11-21T04:37:33;6.43;;;3.70;;
42364;SDS011;28498;54.400;18.566;2023-11-21T04:40:00;7.43;;;3.85;;
42364;SDS011;28498;54.400;18.566;2023-11-21T04:42:27;7.85;;;3.63;;
42364;SDS011;28498;54.400;18.566;2023-11-21T04:44:55;14.95;;;4.57;;
42364;SDS011;28498;54.400;18.566;2023-11-21T04:47:22;8.82;;;4.38;;
42364;SDS011;28498;54.400;18.566;2023-11-21T04:49:50;10.68;;;5.18;;
42364;SDS011;28498;54.400;18.566;2023-11-21T04:52:17;6.28;;;3.92;;
42364;SDS011;28498;54.400;18.566;2023-11-21T04:54:44;10.30;;;3.88;;
42364;SDS011;28498;54.400;18.566;2023-11-21T04:57:11;11.68;;;4.00;;
42364;SDS011;28498;54.400;18.566;2023-11-21T04:59:38;12.32;;;5.00;;
42364;SDS011;28498;54.400;18.566;2023-11-21T05:02:05;6.70;;;3.65;;
42364;SDS011;28498;54.400;18.566;2023-11-21T05:04:32;8.80;;;5.05;;
42364;SDS011;28498;54.400;18.566;2023-11-21T05:07:00;8.27;;;3.78;;
42364;SDS011;28498;54.400;18.566;2023-11-21T05:09:27;8.63;;;3.88;;
42364;SDS011;28498;54.400;18.566;2023-11-21T05:11:58;7.28;;;4.07;;
42364;SDS011;28498;54.400;18.566;2023-11-21T05:14:26;9.73;;;4.60;;
42364;SDS011;28498;54.400;18.566;2023-11-21T05:16:54;11.82;;;5.18;;
42364;SDS011;28498;54.400;18.566;2023-11-21T05:19:21;5.72;;;3.60;;
42364;SDS011;28498;54.400;18.566;2023-11-21T05:21:49;9.27;;;4.72;;
42364;SDS011;28498;54.400;18.566;2023-11-21T05:24:16;8.30;;;3.88;;
42364;SDS011;28498;54.400;18.566;2023-11-21T05:26:43;7.57;;;3.75;;
42364;SDS011;28498;54.400;18.566;2023-11-21T05:29:10;6.35;;;3.20;;
42364;SDS011;28498;54.400;18.566;2023-11-21T05:31:37;7.50;;;3.28;;
42364;SDS011;28498;54.400;18.566;2023-11-21T05:34:04;6.45;;;3.75;;
42364;SDS011;28498;54.400;18.566;2023-11-21T05:36:31;7.03;;;4.65;;
42364;SDS011;28498;54.400;18.566;2023-11-21T05:38:58;8.82;;;4.18;;
42364;SDS011;28498;54.400;18.566;2023-11-21T05:41:25;7.53;;;3.55;;
42364;SDS011;28498;54.400;18.566;2023-11-21T05:43:52;9.90;;;4.18;;
42364;SDS011;28498;54.400;18.566;2023-11-21T05:46:20;8.05;;;3.55;;
42364;SDS011;28498;54.400;18.566;2023-11-21T05:48:48;8.30;;;3.75;;
42364;SDS011;28498;54.400;18.566;2023-11-21T05:51:15;8.52;;;4.45;;
42364;SDS011;28498;54.400;18.566;2023-11-21T05:53:42;9.38;;;3.70;;
42364;SDS011;28498;54.400;18.566;2023-11-21T05:56:09;8.25;;;3.40;;
42364;SDS011;28498;54.400;18.566;2023-11-21T05:58:36;8.73;;;3.75;;
42364;SDS011;28498;54.400;18.566;2023-11-21T06:01:05;8.18;;;3.30;;
42364;SDS011;28498;54.400;18.566;2023-11-21T06:03:35;7.13;;;3.80;;
42364;SDS011;28498;54.400;18.566;2023-11-21T06:06:04;6.25;;;3.70;;
42364;SDS011;28498;54.400;18.566;2023-11-21T06:08:31;7.78;;;2.85;;
42364;SDS011;28498;54.400;18.566;2023-11-21T06:10:58;8.05;;;3.45;;
42364;SDS011;28498;54.400;18.566;2023-11-21T06:13:25;7.18;;;3.80;;
42364;SDS011;28498;54.400;18.566;2023-11-21T06:15:52;7.15;;;3.55;;
42364;SDS011;28498;54.400;18.566;2023-11-21T06:18:20;6.85;;;3.75;;
42364;SDS011;28498;54.400;18.566;2023-11-21T06:20:47;5.57;;;3.13;;
42364;SDS011;28498;54.400;18.566;2023-11-21T06:23:14;6.53;;;3.67;;
42364;SDS011;28498;54.400;18.566;2023-11-21T06:25:42;6.72;;;3.85;;
42364;SDS011;28498;54.400;18.566;2023-11-21T06:28:10;8.65;;;4.07;;
42364;SDS011;28498;54.400;18.566;2023-11-21T06:30:37;6.53;;;2.83;;
42364;SDS011;28498;54.400;18.566;2023-11-21T06:33:04;7.95;;;3.30;;
42364;SDS011;28498;54.400;18.566;2023-11-21T06:35:32;7.28;;;3.58;;
42364;SDS011;28498;54.400;18.566;2023-11-21T06:38:01;5.60;;;3.30;;
42364;SDS011;28498;54.400;18.566;2023-11-21T06:40:29;6.75;;;3.33;;
42364;SDS011;28498;54.400;18.566;2023-11-21T06:42:56;8.93;;;3.70;;
42364;SDS011;28498;54.400;18.566;2023-11-21T06:45:25;5.53;;;3.13;;
42364;SDS011;28498;54.400;18.566;2023-11-21T06:47:52;5.50;;;3.17;;
42364;SDS011;28498;54.400;18.566;2023-11-21T06:50:19;6.45;;;3.50;;
42364;SDS011;28498;54.400;18.566;2023-11-21T06:52:47;11.38;;;3.70;;
42364;SDS011;28498;54.400;18.566;2023-11-21T06:55:15;7.75;;;3.15;;
42364;SDS011;28498;54.400;18.566;2023-11-21T06:57:42;5.65;;;2.80;;
42364;SDS011;28498;54.400;18.566;2023-11-21T07:00:11;6.50;;;3.35;;
42364;SDS011;28498;54.400;18.566;2023-11-21T07:02:38;7.93;;;3.63;;
42364;SDS011;28498;54.400;18.566;2023-11-21T07:05:06;5.88;;;3.15;;
42364;SDS011;28498;54.400;18.566;2023-11-21T07:07:33;5.75;;;2.90;;
42364;SDS011;28498;54.400;18.566;2023-11-21T07:10:02;6.25;;;3.03;;
42364;SDS011;28498;54.400;18.566;2023-11-21T07:12:30;9.00;;;3.05;;
42364;SDS011;28498;54.400;18.566;2023-11-21T07:14:58;4.95;;;2.53;;
42364;SDS011;28498;54.400;18.566;2023-11-21T07:17:25;5.97;;;3.17;;
42364;SDS011;28498;54.400;18.566;2023-11-21T07:19:52;5.30;;;3.30;;
42364;SDS011;28498;54.400;18.566;2023-11-21T07:22:19;6.68;;;3.00;;
42364;SDS011;28498;54.400;18.566;2023-11-21T07:24:51;6.40;;;3.03;;
42364;SDS011;28498;54.400;18.566;2023-11-21T07:27:18;5.20;;;2.50;;
42364;SDS011;28498;54.400;18.566;2023-11-21T07:29:45;5.28;;;2.38;;
42364;SDS011;28498;54.400;18.566;2023-11-21T07:32:14;7.57;;;2.60;;
42364;SDS011;28498;54.400;18.566;2023-11-21T07:34:42;5.65;;;3.05;;
42364;SDS011;28498;54.400;18.566;2023-11-21T07:37:09;5.30;;;2.72;;
42364;SDS011;28498;54.400;18.566;2023-11-21T07:39:36;5.97;;;2.58;;
42364;SDS011;28498;54.400;18.566;2023-11-21T07:42:03;5.60;;;2.60;;
42364;SDS011;28498;54.400;18.566;2023-11-21T07:44:31;4.72;;;2.60;;
42364;SDS011;28498;54.400;18.566;2023-11-21T07:46:58;6.05;;;2.80;;
42364;SDS011;28498;54.400;18.566;2023-11-21T07:49:25;5.30;;;2.65;;
42364;SDS011;28498;54.400;18.566;2023-11-21T07:51:53;5.45;;;2.70;;
42364;SDS011;28498;54.400;18.566;2023-11-21T07:54:20;5.75;;;2.50;;
42364;SDS011;28498;54.400;18.566;2023-11-21T07:56:47;5.25;;;2.72;;
42364;SDS011;28498;54.400;18.566;2023-11-21T07:59:14;6.90;;;2.70;;
42364;SDS011;28498;54.400;18.566;2023-11-21T08:01:42;5.47;;;2.60;;
42364;SDS011;28498;54.400;18.566;2023-11-21T08:04:09;5.68;;;2.50;;
42364;SDS011;28498;54.400;18.566;2023-11-21T08:06:37;3.97;;;2.35;;
42364;SDS011;28498;54.400;18.566;2023-11-21T08:09:04;5.95;;;2.30;;
42364;SDS011;28498;54.400;18.566;2023-11-21T08:11:31;4.95;;;2.22;;
42364;SDS011;28498;54.400;18.566;2023-11-21T08:13:59;6.55;;;2.67;;
42364;SDS011;28498;54.400;18.566;2023-11-21T08:16:26;5.07;;;2.72;;
42364;SDS011;28498;54.400;18.566;2023-11-21T08:18:54;6.70;;;2.88;;
42364;SDS011;28498;54.400;18.566;2023-11-21T08:21:21;4.47;;;2.60;;
42364;SDS011;28498;54.400;18.566;2023-11-21T08:23:51;5.22;;;2.42;;
42364;SDS011;28498;54.400;18.566;2023-11-21T08:26:21;6.82;;;2.55;;
42364;SDS011;28498;54.400;18.566;2023-11-21T08:28:49;5.00;;;2.28;;
42364;SDS011;28498;54.400;18.566;2023-11-21T08:31:23;4.28;;;2.33;;
42364;SDS011;28498;54.400;18.566;2023-11-21T08:33:52;5.72;;;2.75;;
42364;SDS011;28498;54.400;18.566;2023-11-21T08:36:22;6.90;;;2.55;;
42364;SDS011;28498;54.400;18.566;2023-11-21T08:38:51;6.15;;;2.88;;
42364;SDS011;28498;54.400;18.566;2023-11-21T08:41:19;5.43;;;2.72;;
42364;SDS011;28498;54.400;18.566;2023-11-21T08:43:52;9.15;;;2.60;;
42364;SDS011;28498;54.400;18.566;2023-11-21T08:46:21;6.07;;;2.95;;
42364;SDS011;28498;54.400;18.566;2023-11-21T08:48:49;5.43;;;2.80;;
42364;SDS011;28498;54.400;18.566;2023-11-21T08:51:18;5.70;;;2.90;;
42364;SDS011;28498;54.400;18.566;2023-11-21T08:53:46;5.72;;;2.63;;
42364;SDS011;28498;54.400;18.566;2023-11-21T08:56:13;5.07;;;2.47;;
42364;SDS011;28498;54.400;18.566;2023-11-21T08:58:41;5.72;;;2.67;;
42364;SDS011;28498;54.400;18.566;2023-11-21T09:01:08;6.40;;;3.00;;
42364;SDS011;28498;54.400;18.566;2023-11-21T09:03:35;5.07;;;2.47;;
42364;SDS011;28498;54.400;18.566;2023-11-21T09:06:03;5.93;;;2.63;;
42364;SDS011;28498;54.400;18.566;2023-11-21T09:08:30;6.47;;;3.03;;
42364;SDS011;28498;54.400;18.566;2023-11-21T09:10:58;5.03;;;3.47;;
42364;SDS011;28498;54.400;18.566;2023-11-21T09:13:25;6.95;;;2.90;;
42364;SDS011;28498;54.400;18.566;2023-11-21T09:15:52;6.57;;;2.58;;
42364;SDS011;28498;54.400;18.566;2023-11-21T09:18:19;5.97;;;2.40;;
42364;SDS011;28498;54.400;18.566;2023-11-21T09:20:46;4.07;;;2.08;;
42364;SDS011;28498;54.400;18.566;2023-11-21T09:23:14;4.82;;;2.20;;
42364;SDS011;28498;54.400;18.566;2023-11-21T09:25:41;4.38;;;2.22;;
42364;SDS011;28498;54.400;18.566;2023-11-21T09:28:08;5.05;;;2.13;;
42364;SDS011;28498;54.400;18.566;2023-11-21T09:30:35;3.47;;;1.80;;
42364;SDS011;28498;54.400;18.566;2023-11-21T09:33:03;5.68;;;1.75;;
42364;SDS011;28498;54.400;18.566;2023-11-21T09:35:37;3.40;;;2.03;;
42364;SDS011;28498;54.400;18.566;2023-11-21T09:38:05;4.25;;;1.70;;
42364;SDS011;28498;54.400;18.566;2023-11-21T09:40:36;4.60;;;2.05;;
42364;SDS011;28498;54.400;18.566;2023-11-21T09:43:05;3.60;;;1.85;;
42364;SDS011;28498;54.400;18.566;2023-11-21T09:45:35;4.40;;;1.77;;
42364;SDS011;28498;54.400;18.566;2023-11-21T09:48:04;3.53;;;1.95;;
42364;SDS011;28498;54.400;18.566;2023-11-21T09:50:32;5.97;;;2.05;;
42364;SDS011;28498;54.400;18.566;2023-11-21T09:55:45;4.88;;;2.22;;
42364;SDS011;28498;54.400;18.566;2023-11-21T09:58:14;3.25;;;1.70;;
42364;SDS011;28498;54.400;18.566;2023-11-21T10:00:42;4.32;;;2.00;;
42364;SDS011;28498;54.400;18.566;2023-11-21T10:03:11;4.38;;;2.08;;
42364;SDS011;28498;54.400;18.566;2023-11-21T10:05:39;3.78;;;1.70;;
42364;SDS011;28498;54.400;18.566;2023-11-21T10:08:09;3.05;;;1.60;;
42364;SDS011;28498;54.400;18.566;2023-11-21T10:10:37;3.95;;;2.00;;
42364;SDS011;28498;54.400;18.566;2023-11-21T10:13:14;5.75;;;2.22;;
42364;SDS011;28498;54.400;18.566;2023-11-21T10:15:44;4.75;;;2.30;;
42364;SDS011;28498;54.400;18.566;2023-11-21T10:18:15;6.80;;;2.30;;
42364;SDS011;28498;54.400;18.566;2023-11-21T10:20:43;3.97;;;2.15;;
42364;SDS011;28498;54.400;18.566;2023-11-21T10:23:12;6.60;;;2.30;;
42364;SDS011;28498;54.400;18.566;2023-11-21T10:25:42;4.80;;;2.28;;
42364;SDS011;28498;54.400;18.566;2023-11-21T10:28:09;3.95;;;2.00;;
42364;SDS011;28498;54.400;18.566;2023-11-21T10:30:37;5.57;;;2.42;;
42364;SDS011;28498;54.400;18.566;2023-11-21T10:33:05;4.70;;;2.55;;
42364;SDS011;28498;54.400;18.566;2023-11-21T10:35:48;3.08;;;1.67;;
42364;SDS011;28498;54.400;18.566;2023-11-21T10:38:21;3.85;;;2.10;;
42364;SDS011;28498;54.400;18.566;2023-11-21T10:40:50;4.57;;;2.42;;
42364;SDS011;28498;54.400;18.566;2023-11-21T10:43:18;3.28;;;1.77;;
42364;SDS011;28498;54.400;18.566;2023-11-21T10:45:45;5.15;;;2.10;;
42364;SDS011;28498;54.400;18.566;2023-11-21T10:48:13;3.13;;;1.40;;
42364;SDS011;28498;54.400;18.566;2023-11-21T10:50:45;2.88;;;1.80;;
42364;SDS011;28498;54.400;18.566;2023-11-21T10:53:13;7.10;;;3.92;;
42364;SDS011;28498;54.400;18.566;2023-11-21T10:55:41;4.43;;;1.65;;
42364;SDS011;28498;54.400;18.566;2023-11-21T10:58:10;4.70;;;1.95;;
42364;SDS011;28498;54.400;18.566;2023-11-21T11:00:40;4.57;;;1.90;;
42364;SDS011;28498;54.400;18.566;2023-11-21T11:03:07;3.80;;;2.00;;
42364;SDS011;28498;54.400;18.566;2023-11-21T11:05:43;5.20;;;2.50;;
42364;SDS011;28498;54.400;18.566;2023-11-21T11:08:19;4.43;;;2.00;;
42364;SDS011;28498;54.400;18.566;2023-11-21T11:10:54;4.57;;;1.95;;
42364;SDS011;28498;54.400;18.566;2023-11-21T11:13:22;4.25;;;1.80;;
42364;SDS011;28498;54.400;18.566;2023-11-21T11:15:49;3.85;;;1.95;;
42364;SDS011;28498;54.400;18.566;2023-11-21T11:18:17;2.92;;;1.75;;
42364;SDS011;28498;54.400;18.566;2023-11-21T11:20:47;5.78;;;2.38;;
42364;SDS011;28498;54.400;18.566;2023-11-21T11:23:32;4.72;;;2.15;;
42364;SDS011;28498;54.400;18.566;2023-11-21T11:26:30;3.50;;;2.00;;
42364;SDS011;28498;54.400;18.566;2023-11-21T11:31:54;5.38;;;2.30;;
42364;SDS011;28498;54.400;18.566;2023-11-21T11:34:45;5.43;;;2.22;;
42364;SDS011;28498;54.400;18.566;2023-11-21T11:37:16;4.13;;;2.10;;
42364;SDS011;28498;54.400;18.566;2023-11-21T11:39:44;5.32;;;2.22;;
42364;SDS011;28498;54.400;18.566;2023-11-21T11:42:15;3.72;;;2.05;;
42364;SDS011;28498;54.400;18.566;2023-11-21T11:47:25;6.35;;;2.58;;
42364;SDS011;28498;54.400;18.566;2023-11-21T11:50:08;5.10;;;2.47;;
42364;SDS011;28498;54.400;18.566;2023-11-21T11:52:44;4.00;;;2.13;;
42364;SDS011;28498;54.400;18.566;2023-11-21T11:55:17;4.25;;;2.03;;
42364;SDS011;28498;54.400;18.566;2023-11-21T11:57:52;5.47;;;2.10;;
42364;SDS011;28498;54.400;18.566;2023-11-21T12:02:53;4.45;;;2.42;;
42364;SDS011;28498;54.400;18.566;2023-11-21T12:05:23;4.53;;;2.75;;
42364;SDS011;28498;54.400;18.566;2023-11-21T12:07:55;6.55;;;2.40;;
42364;SDS011;28498;54.400;18.566;2023-11-21T12:10:24;5.65;;;2.33;;
42364;SDS011;28498;54.400;18.566;2023-11-21T12:12:57;4.75;;;2.05;;
42364;SDS011;28498;54.400;18.566;2023-11-21T12:15:26;7.13;;;3.65;;
42364;SDS011;28498;54.400;18.566;2023-11-21T12:17:57;6.07;;;2.30;;
42364;SDS011;28498;54.400;18.566;2023-11-21T12:20:25;5.47;;;2.10;;
42364;SDS011;28498;54.400;18.566;2023-11-21T12:22:54;6.43;;;2.60;;
42364;SDS011;28498;54.400;18.566;2023-11-21T12:25:23;4.53;;;2.30;;
42364;SDS011;28498;54.400;18.566;2023-11-21T12:27:55;4.07;;;2.22;;
42364;SDS011;28498;54.400;18.566;2023-11-21T12:30:24;4.57;;;2.20;;
42364;SDS011;28498;54.400;18.566;2023-11-21T12:32:54;6.53;;;2.80;;
42364;SDS011;28498;54.400;18.566;2023-11-21T12:35:24;6.50;;;2.00;;
42364;SDS011;28498;54.400;18.566;2023-11-21T12:37:53;4.97;;;2.85;;
42364;SDS011;28498;54.400;18.566;2023-11-21T12:40:24;6.18;;;2.85;;
42364;SDS011;28498;54.400;18.566;2023-11-21T12:42:53;4.88;;;2.20;;
42364;SDS011;28498;54.400;18.566;2023-11-21T12:47:49;5.13;;;2.45;;
42364;SDS011;28498;54.400;18.566;2023-11-21T12:50:23;4.10;;;2.22;;
42364;SDS011;28498;54.400;18.566;2023-11-21T12:52:59;5.22;;;2.33;;
42364;SDS011;28498;54.400;18.566;2023-11-21T12:55:30;4.45;;;2.00;;
42364;SDS011;28498;54.400;18.566;2023-11-21T12:58:00;5.15;;;2.40;;
42364;SDS011;28498;54.400;18.566;2023-11-21T13:00:38;5.93;;;2.83;;
42364;SDS011;28498;54.400;18.566;2023-11-21T13:03:09;4.57;;;2.40;;
42364;SDS011;28498;54.400;18.566;2023-11-21T13:05:40;4.40;;;2.10;;
42364;SDS011;28498;54.400;18.566;2023-11-21T13:08:14;5.78;;;3.25;;
42364;SDS011;28498;54.400;18.566;2023-11-21T13:10:46;4.90;;;2.25;;
42364;SDS011;28498;54.400;18.566;2023-11-21T13:13:16;4.60;;;2.60;;
42364;SDS011;28498;54.400;18.566;2023-11-21T13:15:50;8.68;;;5.60;;
42364;SDS011;28498;54.400;18.566;2023-11-21T13:18:19;5.07;;;2.38;;
42364;SDS011;28498;54.400;18.566;2023-11-21T13:20:48;5.18;;;2.45;;
42364;SDS011;28498;54.400;18.566;2023-11-21T13:23:16;7.25;;;2.85;;
42364;SDS011;28498;54.400;18.566;2023-11-21T13:25:43;6.57;;;3.63;;
42364;SDS011;28498;54.400;18.566;2023-11-21T13:28:27;5.93;;;3.08;;
42364;SDS011;28498;54.400;18.566;2023-11-21T13:30:59;6.60;;;2.70;;
42364;SDS011;28498;54.400;18.566;2023-11-21T13:33:37;5.97;;;2.92;;
42364;SDS011;28498;54.400;18.566;2023-11-21T13:36:09;7.38;;;3.17;;
42364;SDS011;28498;54.400;18.566;2023-11-21T13:38:37;4.82;;;3.13;;
42364;SDS011;28498;54.400;18.566;2023-11-21T13:41:09;6.88;;;3.45;;
42364;SDS011;28498;54.400;18.566;2023-11-21T13:43:39;5.82;;;2.88;;
42364;SDS011;28498;54.400;18.566;2023-11-21T13:46:06;6.85;;;3.33;;
42364;SDS011;28498;54.400;18.566;2023-11-21T13:48:41;5.38;;;3.03;;
42364;SDS011;28498;54.400;18.566;2023-11-21T13:51:09;9.32;;;4.28;;
42364;SDS011;28498;54.400;18.566;2023-11-21T13:53:44;6.63;;;3.53;;
42364;SDS011;28498;54.400;18.566;2023-11-21T13:56:17;6.32;;;3.42;;
42364;SDS011;28498;54.400;18.566;2023-11-21T13:58:51;8.48;;;3.15;;
42364;SDS011;28498;54.400;18.566;2023-11-21T14:01:19;9.13;;;3.00;;
42364;SDS011;28498;54.400;18.566;2023-11-21T14:03:51;6.30;;;3.08;;
42364;SDS011;28498;54.400;18.566;2023-11-21T14:06:24;5.72;;;2.30;;
42364;SDS011;28498;54.400;18.566;2023-11-21T14:08:59;6.28;;;2.85;;
42364;SDS011;28498;54.400;18.566;2023-11-21T14:11:31;11.35;;;4.32;;
42364;SDS011;28498;54.400;18.566;2023-11-21T14:14:08;4.95;;;2.83;;
42364;SDS011;28498;54.400;18.566;2023-11-21T14:16:36;6.13;;;3.58;;
42364;SDS011;28498;54.400;18.566;2023-11-21T14:19:03;6.00;;;3.13;;
42364;SDS011;28498;54.400;18.566;2023-11-21T14:21:42;5.95;;;2.30;;
42364;SDS011;28498;54.400;18.566;2023-11-21T14:24:11;4.38;;;2.03;;
42364;SDS011;28498;54.400;18.566;2023-11-21T14:26:45;3.75;;;1.73;;
42364;SDS011;28498;54.400;18.566;2023-11-21T14:29:14;6.75;;;2.58;;
42364;SDS011;28498;54.400;18.566;2023-11-21T14:31:46;4.03;;;1.80;;
42364;SDS011;28498;54.400;18.566;2023-11-21T14:34:14;4.45;;;1.80;;
42364;SDS011;28498;54.400;18.566;2023-11-21T14:36:46;4.07;;;1.90;;
42364;SDS011;28498;54.400;18.566;2023-11-21T14:39:13;3.50;;;1.60;;
42364;SDS011;28498;54.400;18.566;2023-11-21T14:42:03;3.63;;;1.70;;
42364;SDS011;28498;54.400;18.566;2023-11-21T14:44:30;5.10;;;2.53;;
42364;SDS011;28498;54.400;18.566;2023-11-21T14:47:04;7.70;;;2.58;;
42364;SDS011;28498;54.400;18.566;2023-11-21T14:49:39;3.30;;;1.95;;
42364;SDS011;28498;54.400;18.566;2023-11-21T14:52:19;6.95;;;2.25;;
42364;SDS011;28498;54.400;18.566;2023-11-21T14:54:59;5.97;;;1.98;;
42364;SDS011;28498;54.400;18.566;2023-11-21T14:57:48;6.30;;;2.75;;